createdAt,value
2022-09-18T00:01:20.610Z,75.68
2022-09-18T00:03:47.582Z,75.32
2022-09-18T00:06:17.646Z,75.20
2022-09-18T00:08:44.278Z,75.34
2022-09-18T00:11:13.482Z,75.19
2022-09-18T00:13:41.572Z,75.09
2022-09-18T00:16:10.275Z,75.25
2022-09-18T00:18:36.853Z,75.37
2022-09-18T00:21:08.334Z,75.03
2022-09-18T00:23:34.832Z,75.24
2022-09-18T00:26:01.420Z,75.21
2022-09-18T00:28:28.419Z,75.20
2022-09-18T00:30:54.924Z,75.22
2022-09-18T00:33:21.361Z,75.23
2022-09-18T00:35:47.793Z,75.42
2022-09-18T00:38:14.182Z,75.38
2022-09-18T00:40:40.920Z,75.29
2022-09-18T00:43:26.157Z,75.01
2022-09-18T00:45:59.182Z,75.06
2022-09-18T00:48:51.423Z,75.07
2022-09-18T00:51:18.594Z,75.10
2022-09-18T00:53:53.455Z,75.04
2022-09-18T00:56:20.092Z,75.16
2022-09-18T00:58:46.878Z,75.08
2022-09-18T01:01:13.441Z,75.12
2022-09-18T01:03:39.842Z,75.11
2022-09-18T01:06:10.787Z,75.42
2022-09-18T01:09:09.041Z,75.31
2022-09-18T01:11:51.889Z,75.36
2022-09-18T01:14:36.430Z,75.42
2022-09-18T01:17:21.606Z,75.76
2022-09-18T01:20:13.979Z,75.31
2022-09-18T01:23:13.873Z,75.33
2022-09-18T01:26:30.912Z,75.27
2022-09-18T01:29:05.047Z,75.31
2022-09-18T01:31:44.864Z,75.16
2022-09-18T01:34:25.689Z,75.16
2022-09-18T01:36:57.455Z,75.61
2022-09-18T01:39:31.224Z,76.08
2022-09-18T01:41:59.233Z,76.00
2022-09-18T01:44:30.112Z,76.57
2022-09-18T01:47:02.872Z,76.33
2022-09-18T01:49:39.335Z,76.38
2022-09-18T01:52:18.042Z,76.18
2022-09-18T01:54:49.460Z,76.49
2022-09-18T01:57:25.726Z,76.56
2022-09-18T01:59:58.505Z,76.38
2022-09-18T02:02:35.118Z,76.30
2022-09-18T02:05:07.516Z,76.18
2022-09-18T02:07:48.974Z,76.19
2022-09-18T02:10:21.643Z,76.01
2022-09-18T02:12:48.474Z,76.44
2022-09-18T02:15:16.216Z,76.40
2022-09-18T02:17:59.067Z,76.44
2022-09-18T02:20:36.169Z,76.51
2022-09-18T02:23:06.701Z,76.46
2022-09-18T02:25:42.869Z,76.33
2022-09-18T02:28:11.353Z,76.16
2022-09-18T02:30:39.238Z,76.23
2022-09-18T02:33:23.610Z,76.12
2022-09-18T02:36:02.305Z,75.85
2022-09-18T02:38:40.937Z,75.61
2022-09-18T02:41:23.212Z,75.71
2022-09-18T02:43:57.225Z,75.67
2022-09-18T02:46:41.854Z,75.43
2022-09-18T02:49:38.161Z,75.77
2022-09-18T02:52:14.124Z,76.28
2022-09-18T02:54:49.737Z,76.73
2022-09-18T02:57:29.336Z,76.41
2022-09-18T03:00:00.342Z,76.26
2022-09-18T03:02:28.413Z,76.31
2022-09-18T03:04:55.948Z,76.21
2022-09-18T03:07:31.741Z,76.14
2022-09-18T03:09:58.971Z,76.11
2022-09-18T03:12:25.368Z,76.18
2022-09-18T03:14:51.787Z,75.65
2022-09-18T03:17:18.201Z,75.95
2022-09-18T03:19:45.786Z,75.89
2022-09-18T03:22:12.789Z,76.02
2022-09-18T03:24:39.201Z,75.82
2022-09-18T03:27:06.966Z,75.94
2022-09-18T03:29:33.734Z,76.00
2022-09-18T03:32:01.682Z,75.96
2022-09-18T03:34:28.601Z,75.94
2022-09-18T03:36:55.088Z,76.23
2022-09-18T03:39:21.462Z,76.06
2022-09-18T03:41:50.431Z,76.06
2022-09-18T03:44:17.057Z,76.05
2022-09-18T03:46:44.821Z,76.17
2022-09-18T03:49:11.402Z,76.28
2022-09-18T03:51:39.725Z,76.24
2022-09-18T03:54:07.113Z,76.57
2022-09-18T03:56:51.917Z,77.20
2022-09-18T03:59:29.874Z,77.00
2022-09-18T04:01:57.298Z,77.11
2022-09-18T04:04:27.605Z,77.07
2022-09-18T04:07:12.350Z,77.10
2022-09-18T04:09:45.042Z,77.09
2022-09-18T04:12:11.514Z,77.35
2022-09-18T04:14:38.760Z,77.29
2022-09-18T04:17:05.191Z,77.18
2022-09-18T04:19:31.582Z,76.85
2022-09-18T04:21:58.156Z,76.78
2022-09-18T04:24:24.767Z,76.74
2022-09-18T04:26:51.182Z,76.98
2022-09-18T04:29:20.734Z,77.12
2022-09-18T04:31:49.338Z,77.14
2022-09-18T04:34:17.101Z,77.17
2022-09-18T04:36:43.716Z,77.23
2022-09-18T04:39:10.330Z,77.24
2022-09-18T04:41:37.025Z,77.16
2022-09-18T04:44:04.911Z,77.23
2022-09-18T04:46:31.491Z,77.18
2022-09-18T04:48:59.701Z,77.10
2022-09-18T04:51:27.493Z,76.98
2022-09-18T04:53:54.192Z,76.99
2022-09-18T04:56:22.598Z,76.67
2022-09-18T04:58:51.354Z,76.61
2022-09-18T05:01:18.216Z,76.12
2022-09-18T05:03:44.658Z,76.48
2022-09-18T05:06:18.929Z,76.29
2022-09-18T05:08:45.758Z,76.39
2022-09-18T05:11:12.177Z,76.59
2022-09-18T05:13:40.001Z,76.48
2022-09-18T05:16:12.816Z,76.57
2022-09-18T05:18:41.553Z,76.53
2022-09-18T05:21:08.068Z,76.77
2022-09-18T05:23:34.765Z,76.67
2022-09-18T05:26:02.431Z,76.61
2022-09-18T05:28:28.822Z,76.86
2022-09-18T05:31:00.921Z,76.39
2022-09-18T05:33:41.613Z,76.54
2022-09-18T05:36:08.756Z,76.43
2022-09-18T05:38:35.784Z,76.72
2022-09-18T05:41:04.585Z,76.71
2022-09-18T05:43:30.991Z,76.83
2022-09-18T05:45:57.800Z,76.77
2022-09-18T05:48:35.081Z,76.90
2022-09-18T05:51:01.675Z,77.04
2022-09-18T05:53:28.337Z,77.15
2022-09-18T05:56:02.569Z,77.16
2022-09-18T05:58:30.087Z,77.15
2022-09-18T06:00:58.604Z,77.15
2022-09-18T06:03:31.813Z,77.04
2022-09-18T06:06:00.071Z,77.28
2022-09-18T06:08:26.478Z,77.47
2022-09-18T06:10:54.610Z,77.16
2022-09-18T06:13:21.343Z,76.89
2022-09-18T06:15:52.325Z,76.98
2022-09-18T06:18:31.510Z,76.79
2022-09-18T06:21:00.206Z,76.40
2022-09-18T06:23:29.309Z,76.35
2022-09-18T06:26:06.017Z,76.35
2022-09-18T06:28:34.738Z,75.98
2022-09-18T06:31:04.249Z,75.91
2022-09-18T06:33:42.333Z,75.85
2022-09-18T06:36:13.863Z,76.07
2022-09-18T06:38:51.713Z,76.01
2022-09-18T06:41:18.207Z,76.09
2022-09-18T06:43:50.188Z,75.84
2022-09-18T06:46:31.320Z,75.88
2022-09-18T06:49:04.765Z,76.03
2022-09-18T06:51:31.165Z,75.80
2022-09-18T06:54:04.537Z,75.72
2022-09-18T06:56:31.418Z,75.63
2022-09-18T06:58:57.925Z,75.29
2022-09-18T07:01:24.484Z,74.94
2022-09-18T07:04:03.261Z,75.53
2022-09-18T07:06:39.654Z,75.91
2022-09-18T07:09:06.111Z,75.98
2022-09-18T07:11:50.976Z,76.25
2022-09-18T07:14:17.524Z,76.42
2022-09-18T07:16:44.049Z,76.54
2022-09-18T07:19:11.993Z,76.57
2022-09-18T07:21:39.458Z,76.50
2022-09-18T07:24:06.282Z,76.57
2022-09-18T07:26:32.810Z,76.60
2022-09-18T07:28:59.262Z,76.57
2022-09-18T07:31:30.665Z,76.59
2022-09-18T07:33:57.426Z,76.79
2022-09-18T07:36:27.855Z,77.02
2022-09-18T07:38:54.273Z,77.03
2022-09-18T07:41:23.933Z,77.08
2022-09-18T07:43:50.933Z,77.24
2022-09-18T07:46:17.988Z,77.18
2022-09-18T07:48:47.279Z,77.20
2022-09-18T07:51:25.982Z,77.00
2022-09-18T07:53:53.455Z,77.06
2022-09-18T07:56:30.654Z,77.22
2022-09-18T07:58:57.316Z,77.24
2022-09-18T08:01:25.770Z,77.16
2022-09-18T08:03:55.341Z,76.91
2022-09-18T08:06:24.430Z,77.10
2022-09-18T08:09:04.673Z,77.13
2022-09-18T08:11:54.174Z,77.31
2022-09-18T08:14:29.112Z,77.46
2022-09-18T08:17:09.051Z,77.46
2022-09-18T08:20:01.667Z,77.05
2022-09-18T08:22:54.407Z,77.28
2022-09-18T08:25:26.502Z,77.25
2022-09-18T08:27:53.525Z,77.26
2022-09-18T08:30:32.511Z,77.13
2022-09-18T08:33:05.115Z,77.19
2022-09-18T08:35:32.194Z,77.50
2022-09-18T08:38:05.365Z,77.60
2022-09-18T08:41:08.970Z,77.69
2022-09-18T08:43:46.130Z,77.74
2022-09-18T08:46:18.258Z,77.97
2022-09-18T08:49:07.310Z,77.94
2022-09-18T08:51:52.135Z,78.22
2022-09-18T08:54:56.058Z,77.78
2022-09-18T08:57:39.113Z,78.03
2022-09-18T09:00:23.550Z,77.67
2022-09-18T09:03:24.937Z,77.01
2022-09-18T09:05:58.130Z,77.38
2022-09-18T09:08:42.597Z,77.38
2022-09-18T09:11:21.065Z,77.49
2022-09-18T09:14:04.644Z,77.09
2022-09-18T09:16:45.703Z,77.16
2022-09-18T09:19:31.190Z,76.91
2022-09-18T09:22:18.168Z,76.46
2022-09-18T09:24:44.997Z,76.26
2022-09-18T09:27:44.506Z,76.05
2022-09-18T09:30:35.646Z,76.01
2022-09-18T09:33:35.200Z,75.81
2022-09-18T09:36:20.627Z,75.73
2022-09-18T09:38:54.453Z,75.86
2022-09-18T09:41:39.353Z,75.58
2022-09-18T09:44:15.026Z,75.58
2022-09-18T09:47:18.394Z,75.77
2022-09-18T09:50:03.677Z,76.02
2022-09-18T09:52:32.923Z,76.35
2022-09-18T09:55:23.520Z,76.17
2022-09-18T09:58:12.582Z,76.01
2022-09-18T10:01:03.217Z,76.05
2022-09-18T10:03:54.708Z,75.94
2022-09-18T10:06:32.907Z,76.30
2022-09-18T10:09:18.727Z,75.84
2022-09-18T10:12:18.395Z,76.16
2022-09-18T10:14:51.001Z,75.96
2022-09-18T10:17:19.888Z,75.35
2022-09-18T10:19:48.069Z,75.50
2022-09-18T10:22:19.041Z,75.75
2022-09-18T10:25:05.474Z,76.09
2022-09-18T10:27:32.870Z,76.19
2022-09-18T10:30:08.618Z,75.97
2022-09-18T10:32:43.702Z,75.96
2022-09-18T10:35:44.377Z,75.93
2022-09-18T10:38:28.729Z,76.06
2022-09-18T10:40:56.854Z,75.97
2022-09-18T10:43:23.409Z,75.95
2022-09-18T10:45:56.047Z,75.83
2022-09-18T10:49:25.568Z,75.98
2022-09-18T10:52:54.237Z,75.67
2022-09-18T10:55:30.917Z,75.54
2022-09-18T10:58:13.354Z,75.63
2022-09-18T11:00:53.602Z,75.48
2022-09-18T11:03:33.066Z,75.61
2022-09-18T11:06:03.285Z,75.73
2022-09-18T11:08:35.099Z,75.51
2022-09-18T11:11:06.349Z,75.74
2022-09-18T11:13:48.474Z,75.66
2022-09-18T11:16:27.939Z,76.23
2022-09-18T11:22:54.667Z,76.43
2022-09-18T11:25:28.853Z,76.20
2022-09-18T11:28:30.101Z,76.38
2022-09-18T11:31:02.813Z,76.38
2022-09-18T11:34:00.854Z,76.39
2022-09-18T11:36:35.154Z,76.45
2022-09-18T11:39:13.605Z,76.36
2022-09-18T11:41:41.845Z,76.32
2022-09-18T11:44:24.514Z,76.37
2022-09-18T11:47:17.359Z,76.30
2022-09-18T11:49:55.374Z,76.23
2022-09-18T11:52:40.850Z,76.17
2022-09-18T11:55:19.893Z,76.38
2022-09-18T11:58:13.867Z,76.27
2022-09-18T12:00:45.209Z,76.24
2022-09-18T12:03:15.102Z,76.25
2022-09-18T12:05:51.346Z,76.20
2022-09-18T12:08:36.873Z,76.25
2022-09-18T12:11:34.610Z,76.45
2022-09-18T12:14:15.584Z,76.51
2022-09-18T12:17:03.350Z,77.04
2022-09-18T12:19:39.363Z,77.25
2022-09-18T12:22:35.905Z,77.00
2022-09-18T12:25:17.244Z,77.11
2022-09-18T12:28:28.722Z,76.93
2022-09-18T12:31:19.052Z,77.13
2022-09-18T12:34:20.259Z,77.22
2022-09-18T12:37:04.825Z,77.24
2022-09-18T12:40:10.256Z,76.80
2022-09-18T12:42:54.369Z,77.03
2022-09-18T12:45:29.998Z,76.99
2022-09-18T12:48:28.381Z,77.00
2022-09-18T12:51:17.688Z,76.47
2022-09-18T12:53:56.447Z,76.75
2022-09-18T12:56:42.937Z,76.48
2022-09-18T12:59:32.273Z,76.87
2022-09-18T13:02:20.290Z,76.95
2022-09-18T13:05:28.077Z,77.08
2022-09-18T13:08:05.348Z,76.82
2022-09-18T13:10:46.965Z,76.40
2022-09-18T13:13:32.906Z,76.87
2022-09-18T13:16:04.893Z,76.94
2022-09-18T13:18:52.828Z,76.85
2022-09-18T13:21:37.355Z,76.99
2022-09-18T13:24:06.020Z,77.07
2022-09-18T13:26:37.626Z,77.15
2022-09-18T13:29:25.620Z,76.75
2022-09-18T13:31:55.033Z,77.14
2022-09-18T13:34:22.728Z,76.82
2022-09-18T13:36:49.336Z,76.89
2022-09-18T13:39:20.453Z,77.10
2022-09-18T13:41:51.557Z,76.75
2022-09-18T13:44:21.180Z,77.29
2022-09-18T13:46:50.061Z,77.26
2022-09-18T13:49:30.091Z,76.70
2022-09-18T13:51:56.880Z,76.70
2022-09-18T13:54:28.710Z,76.46
2022-09-18T13:57:15.077Z,76.63
2022-09-18T13:59:44.258Z,76.50
2022-09-18T14:02:43.162Z,76.99
2022-09-18T14:05:35.408Z,77.32
2022-09-18T14:08:09.684Z,77.76
2022-09-18T14:10:59.790Z,77.13
2022-09-18T14:13:42.749Z,77.00
2022-09-18T14:16:22.144Z,77.02
2022-09-18T14:18:48.470Z,76.96
2022-09-18T14:21:14.847Z,76.69
2022-09-18T14:23:45.292Z,76.71
2022-09-18T14:26:37.502Z,76.85
2022-09-18T14:29:16.384Z,76.78
2022-09-18T14:31:51.679Z,76.59
2022-09-18T14:34:27.091Z,76.90
2022-09-18T14:37:00.613Z,76.80
2022-09-18T14:39:37.638Z,77.03
2022-09-18T14:42:24.634Z,76.88
2022-09-18T14:44:57.546Z,76.91
2022-09-18T14:47:26.732Z,77.07
2022-09-18T14:49:53.831Z,77.27
2022-09-18T14:52:29.782Z,77.04
2022-09-18T14:54:59.159Z,77.21
2022-09-18T14:57:40.197Z,77.04
2022-09-18T15:00:08.081Z,77.70
2022-09-18T15:02:37.843Z,77.35
2022-09-18T15:05:12.339Z,77.80
2022-09-18T15:07:39.905Z,77.56
2022-09-18T15:10:09.386Z,77.25
2022-09-18T15:12:36.949Z,77.61
2022-09-18T15:15:39.939Z,77.21
2022-09-18T15:18:27.364Z,76.94
2022-09-18T15:20:59.116Z,76.39
2022-09-18T15:23:32.257Z,76.10
2022-09-18T15:26:02.602Z,76.26
2022-09-18T15:28:35.189Z,75.98
2022-09-18T15:31:06.338Z,76.02
2022-09-18T15:33:34.950Z,76.32
2022-09-18T15:36:04.445Z,75.56
2022-09-18T15:38:42.915Z,75.73
2022-09-18T15:41:37.794Z,76.07
2022-09-18T15:44:05.985Z,76.44
2022-09-18T15:46:37.208Z,76.60
2022-09-18T15:49:28.082Z,76.25
2022-09-18T15:51:54.642Z,76.37
2022-09-18T15:54:20.957Z,76.67
2022-09-18T15:56:59.440Z,76.26
2022-09-18T15:59:33.233Z,76.40
2022-09-18T16:02:07.244Z,76.45
2022-09-18T16:04:35.409Z,76.17
2022-09-18T16:07:06.422Z,76.29
2022-09-18T16:09:36.028Z,76.20
2022-09-18T16:12:26.518Z,76.26
2022-09-18T16:15:18.631Z,75.74
2022-09-18T16:17:44.963Z,75.85
2022-09-18T16:20:33.895Z,75.87
2022-09-18T16:23:24.148Z,75.87
2022-09-18T16:26:11.061Z,76.00
2022-09-18T16:28:48.991Z,76.32
2022-09-18T16:31:18.331Z,76.27
2022-09-18T16:33:55.422Z,76.47
2022-09-18T16:36:27.358Z,76.56
2022-09-18T16:38:55.189Z,76.43
2022-09-18T16:41:22.079Z,76.35
2022-09-18T16:43:51.213Z,76.53
2022-09-18T16:46:20.613Z,76.73
2022-09-18T16:48:47.410Z,76.58
2022-09-18T16:51:13.855Z,76.52
2022-09-18T16:53:40.212Z,76.13
2022-09-18T16:56:10.878Z,76.62
2022-09-18T16:58:38.859Z,76.43
2022-09-18T17:01:05.470Z,76.49
2022-09-18T17:03:32.536Z,76.43
2022-09-18T17:06:01.915Z,76.43
2022-09-18T17:08:29.411Z,76.33
2022-09-18T17:10:56.176Z,76.30
2022-09-18T17:13:23.084Z,76.53
2022-09-18T17:15:49.616Z,76.23
2022-09-18T17:18:16.080Z,76.29
2022-09-18T17:20:42.774Z,76.33
2022-09-18T17:23:09.182Z,76.42
2022-09-18T17:25:35.569Z,76.34
2022-09-18T17:28:02.078Z,76.13
2022-09-18T17:30:28.437Z,76.33
2022-09-18T17:32:54.792Z,76.21
2022-09-18T17:35:21.403Z,76.35
2022-09-18T17:37:47.777Z,76.21
2022-09-18T17:40:14.259Z,76.21
2022-09-18T17:42:40.740Z,76.46
2022-09-18T17:45:07.536Z,76.02
2022-09-18T17:47:34.176Z,75.70
2022-09-18T17:50:01.534Z,75.74
2022-09-18T17:52:27.893Z,75.54
2022-09-18T17:54:54.305Z,75.44
2022-09-18T17:57:20.687Z,75.33
2022-09-18T17:59:47.995Z,74.63
2022-09-18T18:02:14.524Z,74.27
2022-09-18T18:04:40.959Z,74.25
2022-09-18T18:07:07.468Z,73.65
2022-09-18T18:09:37.485Z,74.01
2022-09-18T18:12:05.305Z,73.52
2022-09-18T18:14:32.890Z,73.91
2022-09-18T18:17:00.610Z,73.98
2022-09-18T18:19:27.777Z,73.33
2022-09-18T18:21:54.457Z,72.94
2022-09-18T18:24:21.364Z,73.14
2022-09-18T18:26:48.505Z,73.02
2022-09-18T18:29:17.633Z,72.65
2022-09-18T18:31:44.223Z,72.74
2022-09-18T18:34:11.646Z,73.05
2022-09-18T18:36:40.506Z,72.70
2022-09-18T18:39:11.840Z,72.81
2022-09-18T18:41:39.469Z,72.45
2022-09-18T18:44:06.273Z,72.15
2022-09-18T18:46:36.113Z,72.17
2022-09-18T18:49:08.851Z,71.77
2022-09-18T18:51:42.840Z,71.89
2022-09-18T18:54:09.753Z,72.08
2022-09-18T18:56:38.403Z,71.86
2022-09-18T18:59:06.990Z,71.98
2022-09-18T19:01:33.660Z,72.10
2022-09-18T19:04:03.377Z,71.96
2022-09-18T19:06:29.923Z,72.11
2022-09-18T19:09:01.792Z,71.70
2022-09-18T19:11:31.022Z,71.52
2022-09-18T19:13:57.545Z,71.43
2022-09-18T19:16:25.781Z,71.07
2022-09-18T19:18:54.151Z,70.78
2022-09-18T19:21:22.226Z,70.59
2022-09-18T19:23:52.469Z,70.66
2022-09-18T19:26:21.083Z,70.35
2022-09-18T19:28:52.150Z,70.34
2022-09-18T19:31:20.270Z,70.08
2022-09-18T19:33:52.288Z,69.76
2022-09-18T19:36:20.873Z,69.71
2022-09-18T19:38:55.114Z,69.47
2022-09-18T19:41:27.591Z,69.15
2022-09-18T19:43:54.018Z,69.18
2022-09-18T19:46:27.548Z,68.71
2022-09-18T19:48:54.555Z,68.58
2022-09-18T19:51:21.096Z,68.59
2022-09-18T19:53:47.490Z,68.26
2022-09-18T19:56:33.126Z,68.13
2022-09-18T19:59:00.305Z,68.21
2022-09-18T20:01:26.641Z,68.15
2022-09-18T20:03:53.878Z,67.61
2022-09-18T20:06:21.240Z,67.88
2022-09-18T20:08:47.667Z,68.00
2022-09-18T20:11:14.165Z,68.02
2022-09-18T20:13:40.557Z,68.10
2022-09-18T20:16:09.310Z,67.92
2022-09-18T20:18:36.197Z,67.92
2022-09-18T20:21:10.925Z,68.24
2022-09-18T20:23:38.204Z,68.01
2022-09-18T20:26:09.219Z,67.66
2022-09-18T20:28:36.511Z,67.92
2022-09-18T20:31:08.558Z,67.80
2022-09-18T20:33:35.260Z,68.17
2022-09-18T20:36:02.264Z,68.17
2022-09-18T20:38:32.743Z,68.30
2022-09-18T20:41:04.799Z,67.93
2022-09-18T20:43:33.148Z,67.64
2022-09-18T20:46:01.356Z,67.34
2022-09-18T20:48:33.022Z,67.24
2022-09-18T20:51:00.601Z,67.31
2022-09-18T20:53:28.203Z,66.78
2022-09-18T20:55:58.364Z,66.71
2022-09-18T20:58:25.398Z,66.64
2022-09-18T21:00:53.344Z,66.65
2022-09-18T21:03:21.033Z,66.74
2022-09-18T21:05:47.626Z,66.38
2022-09-18T21:08:14.065Z,65.67
2022-09-18T21:10:46.586Z,66.08
2022-09-18T21:13:15.244Z,66.44
2022-09-18T21:15:48.312Z,67.03
2022-09-18T21:18:15.784Z,67.65
2022-09-18T21:20:43.243Z,68.02
2022-09-18T21:23:29.812Z,68.24
2022-09-18T21:25:56.606Z,68.34
2022-09-18T21:28:23.004Z,68.51
2022-09-18T21:30:49.377Z,68.71
2022-09-18T21:33:15.838Z,68.89
2022-09-18T21:35:54.697Z,69.01
2022-09-18T21:38:21.034Z,69.07
2022-09-18T21:40:47.898Z,69.30
2022-09-18T21:43:15.481Z,69.25
2022-09-18T21:45:41.932Z,69.39
2022-09-18T21:48:08.984Z,69.64
2022-09-18T21:50:36.373Z,69.36
2022-09-18T21:53:02.818Z,69.31
2022-09-18T21:55:33.586Z,69.31
2022-09-18T21:57:59.961Z,69.09
2022-09-18T22:00:26.351Z,69.05
2022-09-18T22:02:53.510Z,68.67
2022-09-18T22:05:20.598Z,68.43
2022-09-18T22:07:47.224Z,67.81
2022-09-18T22:10:14.596Z,67.91
2022-09-18T22:12:41.147Z,67.75
2022-09-18T22:15:08.058Z,67.21
2022-09-18T22:17:34.392Z,67.08
2022-09-18T22:20:00.842Z,67.07
2022-09-18T22:22:27.328Z,67.33
2022-09-18T22:24:53.736Z,67.50
2022-09-18T22:27:20.087Z,67.27
2022-09-18T22:29:46.545Z,67.26
2022-09-18T22:32:12.915Z,67.10
2022-09-18T22:34:41.502Z,67.28
2022-09-18T22:37:09.640Z,67.45
2022-09-18T22:39:36.007Z,67.43
2022-09-18T22:42:02.492Z,67.60
2022-09-18T22:44:28.850Z,67.67
2022-09-18T22:46:55.336Z,67.48
2022-09-18T22:49:23.364Z,67.37
2022-09-18T22:51:50.616Z,67.58
2022-09-18T22:54:23.387Z,67.53
2022-09-18T22:56:51.666Z,67.46
2022-09-18T22:59:20.951Z,66.60
2022-09-18T23:01:51.953Z,66.27
2022-09-18T23:04:21.251Z,66.07
2022-09-18T23:06:48.328Z,65.92
2022-09-18T23:09:16.295Z,65.66
2022-09-18T23:11:44.614Z,65.57
2022-09-18T23:14:17.029Z,65.17
2022-09-18T23:16:43.728Z,65.14
2022-09-18T23:19:16.813Z,65.27
2022-09-18T23:21:43.326Z,65.30
2022-09-18T23:24:10.609Z,65.11
2022-09-18T23:26:39.799Z,65.10
2022-09-18T23:29:09.289Z,65.16
2022-09-18T23:31:38.711Z,64.94
2022-09-18T23:34:08.342Z,64.67
2022-09-18T23:36:37.809Z,64.87
2022-09-18T23:39:25.376Z,64.85
2022-09-18T23:41:52.298Z,64.57
2022-09-18T23:44:20.365Z,64.84
2022-09-18T23:46:47.489Z,64.65
2022-09-18T23:49:15.161Z,64.94
2022-09-18T23:51:46.081Z,64.95
2022-09-18T23:54:18.972Z,64.77
2022-09-18T23:56:46.673Z,64.48
2022-09-18T23:59:14.537Z,63.63
